createdAt,value
2023-01-26T05:17:59.883Z,100625.75
2023-01-26T05:20:39.127Z,100620.75
2023-01-26T05:23:16.721Z,100625.81
2023-01-26T05:26:18.383Z,100618.81
2023-01-26T05:29:05.541Z,100618.13
2023-01-26T05:31:32.027Z,100620.00
2023-01-26T05:33:58.560Z,100618.41
2023-01-26T05:36:25.089Z,100615.91
2023-01-26T05:38:51.930Z,100620.28
2023-01-26T05:41:22.996Z,100629.91
2023-01-26T05:44:24.917Z,100633.19
2023-01-26T05:46:56.936Z,100633.03
2023-01-26T05:49:24.150Z,100628.63
2023-01-26T05:51:52.695Z,100637.28
2023-01-26T05:54:19.436Z,100637.69
2023-01-26T05:56:45.981Z,100628.97
2023-01-26T05:59:13.477Z,100629.75
2023-01-26T06:01:40.046Z,100638.00
2023-01-26T06:04:10.589Z,100640.81
2023-01-26T06:06:56.435Z,100639.19
2023-01-26T06:09:27.562Z,100641.84
2023-01-26T06:12:22.111Z,100653.72
2023-01-26T06:15:09.607Z,100646.16
2023-01-26T06:17:43.159Z,100643.66
2023-01-26T06:20:14.653Z,100650.63
2023-01-26T06:22:44.656Z,100649.81
2023-01-26T06:25:14.211Z,100654.06
2023-01-26T06:27:42.225Z,100653.25
2023-01-26T06:30:16.309Z,100651.72
2023-01-26T06:32:43.037Z,100656.69
2023-01-26T06:35:09.811Z,100654.13
2023-01-26T06:37:36.776Z,100656.28
2023-01-26T06:40:03.620Z,100661.56
2023-01-26T06:42:30.128Z,100663.44
2023-01-26T06:44:58.863Z,100658.78
2023-01-26T06:47:25.675Z,100655.75
2023-01-26T06:49:52.393Z,100654.38
2023-01-26T06:52:21.895Z,100664.09
2023-01-26T06:54:51.610Z,100665.31
2023-01-26T06:57:27.382Z,100678.16
2023-01-26T07:00:13.660Z,100676.38
2023-01-26T07:03:12.398Z,100676.06
2023-01-26T07:05:38.947Z,100675.38
2023-01-26T07:08:08.488Z,100683.13
2023-01-26T07:10:38.725Z,100685.72
2023-01-26T07:13:05.918Z,100689.53
2023-01-26T07:15:32.891Z,100699.22
2023-01-26T07:18:00.551Z,100695.25
2023-01-26T07:20:27.712Z,100700.81
2023-01-26T07:22:54.312Z,100700.09
2023-01-26T07:25:20.966Z,100697.66
2023-01-26T07:27:47.539Z,100699.34
2023-01-26T07:30:14.390Z,100698.50
2023-01-26T07:32:41.332Z,100702.06
2023-01-26T07:35:08.287Z,100697.66
2023-01-26T07:37:34.804Z,100698.53
2023-01-26T07:40:01.290Z,100699.44
2023-01-26T07:42:27.773Z,100703.22
2023-01-26T07:45:03.405Z,100696.97
2023-01-26T07:47:29.984Z,100695.28
2023-01-26T07:49:56.451Z,100701.28
2023-01-26T07:52:26.006Z,100703.94
2023-01-26T07:54:52.503Z,100709.19
2023-01-26T07:57:19.005Z,100702.41
2023-01-26T07:59:45.550Z,100711.78
2023-01-26T08:02:12.090Z,100711.50
2023-01-26T08:04:38.629Z,100713.22
2023-01-26T08:07:05.120Z,100718.44
2023-01-26T08:09:31.740Z,100711.56
2023-01-26T08:11:59.199Z,100707.31
2023-01-26T08:14:31.111Z,100719.50
2023-01-26T08:17:02.527Z,100718.75
2023-01-26T08:19:29.096Z,100719.72
2023-01-26T08:21:59.436Z,100716.06
2023-01-26T08:24:27.858Z,100720.41
2023-01-26T08:26:54.359Z,100722.09
2023-01-26T08:29:21.151Z,100718.06
2023-01-26T08:31:47.730Z,100722.28
2023-01-26T08:34:14.451Z,100722.94
2023-01-26T08:36:41.159Z,100718.69
2023-01-26T08:39:07.699Z,100726.50
2023-01-26T08:41:34.149Z,100721.34
2023-01-26T08:44:00.698Z,100719.59
2023-01-26T08:46:27.160Z,100723.06
2023-01-26T08:48:53.696Z,100717.75
2023-01-26T08:51:20.204Z,100727.16
2023-01-26T08:53:46.744Z,100720.22
2023-01-26T08:56:16.276Z,100715.00
2023-01-26T08:58:42.852Z,100721.19
2023-01-26T09:01:13.761Z,100718.50
2023-01-26T09:03:40.856Z,100724.47
2023-01-26T09:06:10.801Z,100717.81
2023-01-26T09:08:37.686Z,100725.63
2023-01-26T09:11:08.451Z,100725.47
2023-01-26T09:13:37.180Z,100733.66
2023-01-26T09:16:05.214Z,100736.59
2023-01-26T09:18:32.048Z,100731.56
2023-01-26T09:21:08.902Z,100739.00
2023-01-26T09:23:36.226Z,100741.75
2023-01-26T09:26:03.720Z,100740.78
2023-01-26T09:28:30.233Z,100740.13
2023-01-26T09:30:56.917Z,100742.97
2023-01-26T09:33:26.855Z,100748.03
2023-01-26T09:35:53.414Z,100746.19
2023-01-26T09:38:19.952Z,100743.63
2023-01-26T09:41:07.515Z,100748.22
2023-01-26T09:43:47.813Z,100750.66
2023-01-26T09:46:20.289Z,100734.19
2023-01-26T09:48:50.545Z,100734.16
2023-01-26T09:51:33.535Z,100738.00
2023-01-26T09:54:46.499Z,100748.91
2023-01-26T09:57:16.323Z,100736.19
2023-01-26T10:00:22.442Z,100741.56
2023-01-26T10:03:18.709Z,100738.13
2023-01-26T10:06:07.443Z,100734.72
2023-01-26T10:09:28.588Z,100730.03
2023-01-26T10:12:00.295Z,100732.69
2023-01-26T10:14:41.035Z,100733.00
2023-01-26T10:17:16.038Z,100729.56
2023-01-26T10:19:47.729Z,100732.25
2023-01-26T10:22:25.229Z,100730.63
2023-01-26T10:24:53.127Z,100725.97
2023-01-26T10:27:19.668Z,100722.06
2023-01-26T10:29:46.139Z,100718.44
2023-01-26T10:32:18.078Z,100717.59
2023-01-26T10:34:49.842Z,100708.47
2023-01-26T10:37:28.221Z,100705.88
2023-01-26T10:39:59.770Z,100704.38
2023-01-26T10:42:34.609Z,100710.03
2023-01-26T10:45:06.421Z,100711.56
2023-01-26T10:47:33.395Z,100702.09
2023-01-26T10:50:21.502Z,100703.22
2023-01-26T10:53:02.810Z,100695.97
2023-01-26T10:55:31.511Z,100703.22
2023-01-26T10:57:58.469Z,100698.25
2023-01-26T11:00:31.567Z,100700.84
2023-01-26T11:03:13.433Z,100694.81
2023-01-26T11:05:40.079Z,100689.75
2023-01-26T11:08:36.880Z,100690.81
2023-01-26T11:11:06.847Z,100687.78
2023-01-26T11:13:33.735Z,100680.22
2023-01-26T11:16:04.672Z,100675.66
2023-01-26T11:18:37.420Z,100680.03
2023-01-26T11:21:07.948Z,100675.75
2023-01-26T11:24:15.291Z,100674.13
2023-01-26T11:27:01.760Z,100661.09
2023-01-26T11:29:40.477Z,100655.94
2023-01-26T11:32:41.151Z,100652.34
2023-01-26T11:35:45.320Z,100658.47
2023-01-26T11:38:30.699Z,100659.38
2023-01-26T11:41:13.033Z,100660.09
2023-01-26T11:44:03.512Z,100659.41
2023-01-26T11:46:33.506Z,100660.19
2023-01-26T11:49:48.359Z,100649.88
2023-01-26T11:52:41.977Z,100638.47
2023-01-26T11:55:27.697Z,100636.66
2023-01-26T11:58:27.483Z,100630.63
2023-01-26T12:01:00.859Z,100622.03
2023-01-26T12:03:36.937Z,100623.81
2023-01-26T12:06:14.517Z,100618.44
2023-01-26T12:08:58.847Z,100614.91
2023-01-26T12:11:36.082Z,100625.63
2023-01-26T12:14:19.904Z,100620.34
2023-01-26T12:17:32.954Z,100611.88
2023-01-26T12:20:08.178Z,100611.38
2023-01-26T12:22:42.803Z,100604.41
2023-01-26T12:25:42.444Z,100598.22
2023-01-26T12:29:01.752Z,100591.25
2023-01-26T12:31:39.954Z,100578.34
2023-01-26T12:34:12.439Z,100586.28
2023-01-26T12:36:52.932Z,100587.72
2023-01-26T12:39:34.437Z,100578.56
2023-01-26T12:42:15.270Z,100574.16
2023-01-26T12:44:45.709Z,100571.66
2023-01-26T12:47:20.101Z,100572.63
2023-01-26T12:50:15.967Z,100576.03
2023-01-26T12:52:55.884Z,100570.06
2023-01-26T12:55:46.125Z,100574.22
2023-01-26T12:58:27.627Z,100574.13
2023-01-26T13:01:10.909Z,100568.00
2023-01-26T13:03:42.641Z,100566.34
2023-01-26T13:06:10.486Z,100561.88
2023-01-26T13:08:37.018Z,100564.69
2023-01-26T13:11:10.000Z,100565.41
2023-01-26T13:13:54.664Z,100565.94
2023-01-26T13:16:22.753Z,100564.50
2023-01-26T13:18:52.142Z,100568.88
2023-01-26T13:21:37.791Z,100564.22
2023-01-26T13:24:24.729Z,100559.16
2023-01-26T13:26:53.863Z,100568.72
2023-01-26T13:29:31.948Z,100564.63
2023-01-26T13:32:21.559Z,100557.03
2023-01-26T13:34:57.388Z,100552.53
2023-01-26T13:37:30.861Z,100558.00
2023-01-26T13:40:05.945Z,100559.91
2023-01-26T13:42:42.606Z,100564.00
2023-01-26T13:45:36.708Z,100558.47
2023-01-26T13:48:11.077Z,100560.25
2023-01-26T13:50:37.848Z,100568.88
2023-01-26T13:53:30.174Z,100566.41
2023-01-26T13:55:59.633Z,100560.97
2023-01-26T13:58:27.791Z,100558.41
2023-01-26T14:01:14.039Z,100564.16
2023-01-26T14:03:40.713Z,100563.31
2023-01-26T14:06:19.727Z,100565.63
2023-01-26T14:08:52.230Z,100566.97
2023-01-26T14:11:22.873Z,100570.94
2023-01-26T14:13:53.442Z,100571.84
2023-01-26T14:16:29.453Z,100571.03
2023-01-26T14:19:16.163Z,100575.47
2023-01-26T14:21:53.194Z,100580.69
2023-01-26T14:24:33.895Z,100585.38
2023-01-26T14:27:01.951Z,100587.94
2023-01-26T14:29:30.677Z,100585.47
2023-01-26T14:31:59.306Z,100589.75
2023-01-26T14:34:30.889Z,100591.53
2023-01-26T14:37:14.580Z,100594.19
2023-01-26T14:39:42.892Z,100600.91
2023-01-26T14:42:15.445Z,100604.47
2023-01-26T14:44:42.300Z,100601.97
2023-01-26T14:47:27.092Z,100600.91
2023-01-26T14:50:05.531Z,100605.09
2023-01-26T14:52:40.482Z,100606.31
2023-01-26T14:55:23.124Z,100608.97
2023-01-26T14:57:49.870Z,100602.81
2023-01-26T15:00:32.621Z,100604.34
2023-01-26T15:03:03.827Z,100594.09
2023-01-26T15:05:34.297Z,100592.06
2023-01-26T15:08:06.954Z,100598.22
2023-01-26T15:10:52.951Z,100595.69
2023-01-26T15:13:36.870Z,100595.78
2023-01-26T15:16:07.969Z,100597.56
2023-01-26T15:18:34.713Z,100598.47
2023-01-26T15:21:22.072Z,100599.34
2023-01-26T15:23:54.758Z,100599.22
2023-01-26T15:26:35.586Z,100591.22
2023-01-26T15:29:05.464Z,100597.84
2023-01-26T15:31:37.151Z,100592.19
2023-01-26T15:34:05.844Z,100595.94
2023-01-26T15:36:51.227Z,100592.69
2023-01-26T15:39:19.459Z,100592.13
2023-01-26T15:42:01.663Z,100589.34
2023-01-26T15:44:28.371Z,100585.19
2023-01-26T15:46:56.660Z,100587.81
2023-01-26T15:49:23.447Z,100592.63
2023-01-26T15:51:51.677Z,100584.72
2023-01-26T15:54:19.657Z,100587.41
2023-01-26T15:56:46.134Z,100595.34
2023-01-26T15:59:12.626Z,100598.75
2023-01-26T16:01:39.128Z,100592.84
2023-01-26T16:04:05.633Z,100593.81
2023-01-26T16:06:33.416Z,100603.75
2023-01-26T16:08:59.951Z,100597.72
2023-01-26T16:11:30.360Z,100596.09
2023-01-26T16:14:03.587Z,100596.47
2023-01-26T16:16:31.732Z,100597.47
2023-01-26T16:18:58.680Z,100589.03
2023-01-26T16:21:30.188Z,100585.44
2023-01-26T16:23:56.850Z,100589.09
2023-01-26T16:26:28.485Z,100581.06
2023-01-26T16:28:55.318Z,100586.50
2023-01-26T16:31:28.913Z,100587.25
2023-01-26T16:33:56.202Z,100584.50
2023-01-26T16:36:22.866Z,100593.16
2023-01-26T16:38:49.605Z,100581.00
2023-01-26T16:41:23.105Z,100582.56
2023-01-26T16:43:49.913Z,100581.28
2023-01-26T16:46:16.426Z,100573.13
2023-01-26T16:48:43.515Z,100574.06
2023-01-26T16:51:28.488Z,100573.25
2023-01-26T16:53:55.776Z,100575.28
2023-01-26T16:56:23.844Z,100575.72
2023-01-26T16:58:50.609Z,100575.72
2023-01-26T17:01:32.937Z,100573.81
2023-01-26T17:03:59.822Z,100583.16
2023-01-26T17:06:26.883Z,100575.56
2023-01-26T17:08:53.652Z,100580.88
2023-01-26T17:11:27.797Z,100574.84
2023-01-26T17:13:56.182Z,100577.03
2023-01-26T17:16:36.870Z,100576.53
2023-01-26T17:19:09.242Z,100574.91
2023-01-26T17:21:36.584Z,100588.56
2023-01-26T17:24:03.596Z,100576.38
2023-01-26T17:26:30.165Z,100581.94
2023-01-26T17:28:56.716Z,100576.13
2023-01-26T17:31:24.789Z,100579.19
2023-01-26T17:33:54.769Z,100582.59
2023-01-26T17:36:21.489Z,100590.66
2023-01-26T17:38:48.909Z,100592.50
2023-01-26T17:41:16.636Z,100596.78
2023-01-26T17:43:43.299Z,100593.22
2023-01-26T17:46:18.322Z,100587.59
2023-01-26T17:49:10.220Z,100579.63
2023-01-26T17:51:36.888Z,100586.72
2023-01-26T17:54:03.623Z,100591.28
2023-01-26T17:56:31.030Z,100589.00
2023-01-26T17:58:57.572Z,100589.97
2023-01-26T18:01:26.874Z,100593.81
2023-01-26T18:03:53.740Z,100597.25
2023-01-26T18:06:21.159Z,100598.84
2023-01-26T18:08:54.421Z,100600.25
2023-01-26T18:11:21.856Z,100596.94
2023-01-26T18:13:49.448Z,100596.88
2023-01-26T18:16:19.303Z,100594.16
2023-01-26T18:18:48.024Z,100602.00
2023-01-26T18:21:17.677Z,100605.16
2023-01-26T18:23:48.764Z,100611.09
2023-01-26T18:26:17.047Z,100611.22
2023-01-26T18:28:44.389Z,100613.16
2023-01-26T18:31:15.397Z,100611.19
2023-01-26T18:33:42.468Z,100612.31
2023-01-26T18:36:12.080Z,100605.69
2023-01-26T18:38:40.437Z,100611.13
2023-01-26T18:41:15.628Z,100602.69
2023-01-26T18:43:44.441Z,100604.34
2023-01-26T18:46:14.747Z,100605.69
2023-01-26T18:48:42.526Z,100605.59
2023-01-26T18:51:12.149Z,100608.53
2023-01-26T18:53:39.002Z,100614.16
2023-01-26T18:56:08.936Z,100617.56
2023-01-26T18:58:36.736Z,100608.25
2023-01-26T19:01:06.173Z,100610.03
2023-01-26T19:03:32.861Z,100618.28
2023-01-26T19:06:07.204Z,100613.28
2023-01-26T19:08:36.578Z,100615.13
2023-01-26T19:11:08.306Z,100611.88
2023-01-26T19:13:41.884Z,100605.81
2023-01-26T19:16:09.286Z,100612.09
2023-01-26T19:18:36.132Z,100611.09
2023-01-26T19:21:04.642Z,100605.59
2023-01-26T19:23:34.164Z,100605.66
2023-01-26T19:26:00.935Z,100602.38
2023-01-26T19:28:27.996Z,100602.47
2023-01-26T19:31:02.240Z,100599.31
2023-01-26T19:33:29.099Z,100597.81
2023-01-26T19:35:56.698Z,100596.63
2023-01-26T19:38:23.782Z,100601.84
2023-01-26T19:40:56.687Z,100605.81
2023-01-26T19:43:27.508Z,100602.97
2023-01-26T19:45:56.638Z,100606.69
2023-01-26T19:48:31.310Z,100600.00
2023-01-26T19:51:03.006Z,100600.16
2023-01-26T19:53:31.495Z,100591.75
2023-01-26T19:55:59.999Z,100597.50
2023-01-26T19:58:27.919Z,100596.69
2023-01-26T20:00:59.702Z,100592.50
2023-01-26T20:03:26.631Z,100591.50
2023-01-26T20:05:53.194Z,100595.75
2023-01-26T20:08:20.392Z,100603.00
2023-01-26T20:11:13.931Z,100598.75
2023-01-26T20:13:43.271Z,100594.38
2023-01-26T20:16:11.711Z,100600.56
2023-01-26T20:18:41.485Z,100592.00
2023-01-26T20:21:14.828Z,100593.25
2023-01-26T20:23:54.377Z,100598.75
2023-01-26T20:27:00.075Z,100594.69
2023-01-26T20:29:27.111Z,100600.09
2023-01-26T20:32:11.884Z,100590.44
2023-01-26T20:34:41.022Z,100593.03
2023-01-26T20:37:08.691Z,100594.81
2023-01-26T20:39:35.481Z,100591.09
2023-01-26T20:44:51.907Z,100581.94
2023-01-26T20:47:51.985Z,100576.03
2023-01-26T20:50:46.460Z,100587.63
2023-01-26T20:53:38.874Z,100585.31
2023-01-26T20:56:14.612Z,100577.31
2023-01-26T21:01:52.211Z,100576.88
2023-01-26T21:04:31.825Z,100571.97
2023-01-26T21:06:59.126Z,100562.25
2023-01-26T21:09:36.502Z,100560.53
2023-01-26T21:12:35.706Z,100552.13
2023-01-26T21:15:03.265Z,100551.25
2023-01-26T21:17:30.382Z,100545.28
2023-01-26T21:19:57.295Z,100549.25
2023-01-26T21:22:23.981Z,100548.72
2023-01-26T21:24:50.625Z,100549.41
2023-01-26T21:27:18.295Z,100548.06
2023-01-26T21:29:44.926Z,100547.47
2023-01-26T21:32:11.551Z,100541.97
2023-01-26T21:34:38.228Z,100537.94
2023-01-26T21:37:06.409Z,100542.72
2023-01-26T21:39:32.911Z,100543.69
2023-01-26T21:42:00.719Z,100546.09
2023-01-26T21:44:29.541Z,100544.31
2023-01-26T21:47:02.981Z,100548.94
2023-01-26T21:49:32.507Z,100542.47
2023-01-26T21:52:17.868Z,100541.19
2023-01-26T21:54:44.372Z,100545.13
2023-01-26T21:57:30.263Z,100526.03
2023-01-26T21:59:56.925Z,100527.56
2023-01-26T22:02:24.450Z,100527.72
2023-01-26T22:04:51.439Z,100536.03
2023-01-26T22:07:17.951Z,100534.19
2023-01-26T22:09:44.567Z,100535.22
2023-01-26T22:12:11.223Z,100540.81
2023-01-26T22:14:37.926Z,100538.03
2023-01-26T22:17:05.118Z,100532.06
2023-01-26T22:19:33.817Z,100531.72
2023-01-26T22:22:02.279Z,100535.47
2023-01-26T22:24:28.876Z,100538.84
2023-01-26T22:26:55.969Z,100541.31
2023-01-26T22:29:23.792Z,100536.97
2023-01-26T22:31:50.663Z,100536.41
2023-01-26T22:34:19.935Z,100539.97
2023-01-26T22:36:49.604Z,100538.03
2023-01-26T22:39:16.632Z,100540.81
2023-01-26T22:41:43.749Z,100548.19
2023-01-26T22:44:16.909Z,100536.88
2023-01-26T22:46:46.812Z,100539.16
2023-01-26T22:49:14.041Z,100547.13
2023-01-26T22:51:43.953Z,100538.53
2023-01-26T22:54:12.740Z,100540.34
2023-01-26T22:56:39.487Z,100535.41
2023-01-26T22:59:09.203Z,100534.56
